sensor_id;sensor_type;location;lat;lon;timestamp;P1;durP1;ratioP1;P2;durP2;ratioP2
14599;SDS011;7386;45.586;12.854;2022-11-15T00:01:14;26.27;;;21.47;;
14599;SDS011;7386;45.586;12.854;2022-11-15T00:03:45;25.97;;;21.43;;
14599;SDS011;7386;45.586;12.854;2022-11-15T00:06:15;27.20;;;21.93;;
14599;SDS011;7386;45.586;12.854;2022-11-15T00:08:43;30.47;;;22.80;;
14599;SDS011;7386;45.586;12.854;2022-11-15T00:11:11;26.43;;;22.57;;
14599;SDS011;7386;45.586;12.854;2022-11-15T00:13:40;28.70;;;22.70;;
14599;SDS011;7386;45.586;12.854;2022-11-15T00:16:08;27.53;;;23.33;;
14599;SDS011;7386;45.586;12.854;2022-11-15T00:18:37;28.77;;;23.10;;
14599;SDS011;7386;45.586;12.854;2022-11-15T00:21:07;28.90;;;23.57;;
14599;SDS011;7386;45.586;12.854;2022-11-15T00:23:39;31.70;;;25.07;;
14599;SDS011;7386;45.586;12.854;2022-11-15T00:26:08;30.53;;;25.43;;
14599;SDS011;7386;45.586;12.854;2022-11-15T00:28:39;29.90;;;25.13;;
14599;SDS011;7386;45.586;12.854;2022-11-15T00:31:09;29.47;;;25.17;;
14599;SDS011;7386;45.586;12.854;2022-11-15T00:33:39;33.23;;;25.00;;
14599;SDS011;7386;45.586;12.854;2022-11-15T00:36:11;31.07;;;25.53;;
14599;SDS011;7386;45.586;12.854;2022-11-15T00:38:41;29.90;;;25.93;;
14599;SDS011;7386;45.586;12.854;2022-11-15T00:41:09;35.43;;;28.53;;
14599;SDS011;7386;45.586;12.854;2022-11-15T00:43:37;34.47;;;28.77;;
14599;SDS011;7386;45.586;12.854;2022-11-15T00:46:06;36.53;;;28.13;;
14599;SDS011;7386;45.586;12.854;2022-11-15T00:48:36;32.90;;;27.00;;
14599;SDS011;7386;45.586;12.854;2022-11-15T00:51:04;35.60;;;28.57;;
14599;SDS011;7386;45.586;12.854;2022-11-15T00:53:32;36.10;;;29.37;;
14599;SDS011;7386;45.586;12.854;2022-11-15T00:56:02;35.60;;;29.23;;
14599;SDS011;7386;45.586;12.854;2022-11-15T00:58:30;34.17;;;28.53;;
14599;SDS011;7386;45.586;12.854;2022-11-15T01:01:05;35.57;;;29.00;;
14599;SDS011;7386;45.586;12.854;2022-11-15T01:03:34;34.30;;;28.60;;
14599;SDS011;7386;45.586;12.854;2022-11-15T01:06:03;37.27;;;29.57;;
14599;SDS011;7386;45.586;12.854;2022-11-15T01:08:31;34.03;;;28.87;;
14599;SDS011;7386;45.586;12.854;2022-11-15T01:11:02;39.50;;;32.67;;
14599;SDS011;7386;45.586;12.854;2022-11-15T01:13:31;37.27;;;31.53;;
14599;SDS011;7386;45.586;12.854;2022-11-15T01:16:05;37.87;;;30.57;;
14599;SDS011;7386;45.586;12.854;2022-11-15T01:18:34;35.50;;;28.90;;
14599;SDS011;7386;45.586;12.854;2022-11-15T01:21:04;36.60;;;29.97;;
14599;SDS011;7386;45.586;12.854;2022-11-15T01:23:34;37.47;;;29.60;;
14599;SDS011;7386;45.586;12.854;2022-11-15T01:26:05;35.80;;;30.00;;
14599;SDS011;7386;45.586;12.854;2022-11-15T01:28:36;37.57;;;30.30;;
14599;SDS011;7386;45.586;12.854;2022-11-15T01:31:06;37.87;;;30.43;;
14599;SDS011;7386;45.586;12.854;2022-11-15T01:33:36;35.27;;;29.67;;
14599;SDS011;7386;45.586;12.854;2022-11-15T01:36:04;40.43;;;32.60;;
14599;SDS011;7386;45.586;12.854;2022-11-15T01:38:33;37.40;;;30.90;;
14599;SDS011;7386;45.586;12.854;2022-11-15T01:41:01;44.37;;;32.17;;
14599;SDS011;7386;45.586;12.854;2022-11-15T01:43:33;35.90;;;30.27;;
14599;SDS011;7386;45.586;12.854;2022-11-15T01:46:03;39.33;;;31.97;;
14599;SDS011;7386;45.586;12.854;2022-11-15T01:48:34;37.83;;;31.07;;
14599;SDS011;7386;45.586;12.854;2022-11-15T01:51:04;36.73;;;30.20;;
14599;SDS011;7386;45.586;12.854;2022-11-15T01:53:36;37.67;;;30.87;;
14599;SDS011;7386;45.586;12.854;2022-11-15T01:56:09;44.07;;;30.60;;
14599;SDS011;7386;45.586;12.854;2022-11-15T01:58:41;38.70;;;29.87;;
14599;SDS011;7386;45.586;12.854;2022-11-15T02:01:10;39.37;;;31.67;;
14599;SDS011;7386;45.586;12.854;2022-11-15T02:03:41;40.30;;;32.30;;
14599;SDS011;7386;45.586;12.854;2022-11-15T02:06:14;38.00;;;30.97;;
14599;SDS011;7386;45.586;12.854;2022-11-15T02:08:42;41.27;;;33.07;;
14599;SDS011;7386;45.586;12.854;2022-11-15T02:11:12;39.07;;;32.50;;
14599;SDS011;7386;45.586;12.854;2022-11-15T02:13:41;35.90;;;30.90;;
14599;SDS011;7386;45.586;12.854;2022-11-15T02:16:12;38.27;;;31.83;;
14599;SDS011;7386;45.586;12.854;2022-11-15T02:18:48;36.87;;;31.53;;
14599;SDS011;7386;45.586;12.854;2022-11-15T02:21:21;38.47;;;31.77;;
14599;SDS011;7386;45.586;12.854;2022-11-15T02:24:04;37.63;;;32.77;;
14599;SDS011;7386;45.586;12.854;2022-11-15T02:30:02;38.53;;;31.97;;
14599;SDS011;7386;45.586;12.854;2022-11-15T02:33:02;41.90;;;33.50;;
14599;SDS011;7386;45.586;12.854;2022-11-15T02:35:42;43.83;;;34.20;;
14599;SDS011;7386;45.586;12.854;2022-11-15T02:38:17;42.03;;;33.67;;
14599;SDS011;7386;45.586;12.854;2022-11-15T02:40:53;42.13;;;33.83;;
14599;SDS011;7386;45.586;12.854;2022-11-15T02:43:26;38.07;;;32.47;;
14599;SDS011;7386;45.586;12.854;2022-11-15T02:46:18;43.07;;;33.50;;
14599;SDS011;7386;45.586;12.854;2022-11-15T02:49:12;41.23;;;33.80;;
14599;SDS011;7386;45.586;12.854;2022-11-15T02:51:42;40.97;;;34.03;;
14599;SDS011;7386;45.586;12.854;2022-11-15T02:54:12;37.97;;;32.77;;
14599;SDS011;7386;45.586;12.854;2022-11-15T02:56:43;41.10;;;34.00;;
14599;SDS011;7386;45.586;12.854;2022-11-15T02:59:20;43.90;;;33.13;;
14599;SDS011;7386;45.586;12.854;2022-11-15T03:02:11;41.50;;;34.37;;
14599;SDS011;7386;45.586;12.854;2022-11-15T03:04:50;40.00;;;33.43;;
14599;SDS011;7386;45.586;12.854;2022-11-15T03:07:24;42.83;;;33.03;;
14599;SDS011;7386;45.586;12.854;2022-11-15T03:09:58;42.67;;;34.17;;
14599;SDS011;7386;45.586;12.854;2022-11-15T03:12:34;41.83;;;34.50;;
14599;SDS011;7386;45.586;12.854;2022-11-15T03:15:09;46.63;;;35.10;;
14599;SDS011;7386;45.586;12.854;2022-11-15T03:17:47;45.67;;;36.93;;
14599;SDS011;7386;45.586;12.854;2022-11-15T03:20:21;46.13;;;37.57;;
14599;SDS011;7386;45.586;12.854;2022-11-15T03:22:54;46.50;;;35.90;;
14599;SDS011;7386;45.586;12.854;2022-11-15T03:25:24;42.60;;;35.20;;
14599;SDS011;7386;45.586;12.854;2022-11-15T03:27:55;42.40;;;35.17;;
14599;SDS011;7386;45.586;12.854;2022-11-15T03:30:26;42.20;;;35.97;;
14599;SDS011;7386;45.586;12.854;2022-11-15T03:32:56;42.97;;;35.53;;
14599;SDS011;7386;45.586;12.854;2022-11-15T03:35:27;44.97;;;36.90;;
14599;SDS011;7386;45.586;12.854;2022-11-15T03:38:05;41.27;;;34.13;;
14599;SDS011;7386;45.586;12.854;2022-11-15T03:40:39;43.83;;;35.63;;
14599;SDS011;7386;45.586;12.854;2022-11-15T03:43:09;44.73;;;35.77;;
14599;SDS011;7386;45.586;12.854;2022-11-15T03:45:46;44.03;;;35.67;;
14599;SDS011;7386;45.586;12.854;2022-11-15T03:48:21;43.53;;;34.67;;
14599;SDS011;7386;45.586;12.854;2022-11-15T03:50:55;43.87;;;35.17;;
14599;SDS011;7386;45.586;12.854;2022-11-15T03:53:23;41.73;;;34.50;;
14599;SDS011;7386;45.586;12.854;2022-11-15T03:55:52;42.80;;;35.40;;
14599;SDS011;7386;45.586;12.854;2022-11-15T03:58:20;43.73;;;35.63;;
14599;SDS011;7386;45.586;12.854;2022-11-15T04:00:48;47.37;;;37.67;;
14599;SDS011;7386;45.586;12.854;2022-11-15T04:03:16;45.63;;;36.90;;
14599;SDS011;7386;45.586;12.854;2022-11-15T04:05:45;46.03;;;38.60;;
14599;SDS011;7386;45.586;12.854;2022-11-15T04:08:14;43.70;;;37.20;;
14599;SDS011;7386;45.586;12.854;2022-11-15T04:10:42;45.57;;;37.40;;
14599;SDS011;7386;45.586;12.854;2022-11-15T04:13:11;44.00;;;37.50;;
14599;SDS011;7386;45.586;12.854;2022-11-15T04:15:39;41.47;;;35.47;;
14599;SDS011;7386;45.586;12.854;2022-11-15T04:18:07;42.33;;;35.40;;
14599;SDS011;7386;45.586;12.854;2022-11-15T04:20:36;45.03;;;35.70;;
14599;SDS011;7386;45.586;12.854;2022-11-15T04:23:23;42.60;;;34.57;;
14599;SDS011;7386;45.586;12.854;2022-11-15T04:26:09;40.43;;;34.37;;
14599;SDS011;7386;45.586;12.854;2022-11-15T04:28:39;44.83;;;35.47;;
14599;SDS011;7386;45.586;12.854;2022-11-15T04:31:27;46.43;;;37.27;;
14599;SDS011;7386;45.586;12.854;2022-11-15T04:33:55;48.77;;;38.87;;
14599;SDS011;7386;45.586;12.854;2022-11-15T04:36:24;45.17;;;37.17;;
14599;SDS011;7386;45.586;12.854;2022-11-15T04:39:11;49.23;;;37.87;;
14599;SDS011;7386;45.586;12.854;2022-11-15T04:41:39;47.00;;;37.97;;
14599;SDS011;7386;45.586;12.854;2022-11-15T04:44:08;45.37;;;38.23;;
14599;SDS011;7386;45.586;12.854;2022-11-15T04:46:36;44.17;;;37.00;;
14599;SDS011;7386;45.586;12.854;2022-11-15T04:49:04;44.83;;;37.13;;
14599;SDS011;7386;45.586;12.854;2022-11-15T04:51:32;43.27;;;37.27;;
14599;SDS011;7386;45.586;12.854;2022-11-15T04:54:00;45.87;;;35.50;;
14599;SDS011;7386;45.586;12.854;2022-11-15T04:56:30;44.23;;;36.37;;
14599;SDS011;7386;45.586;12.854;2022-11-15T04:58:58;40.40;;;35.03;;
14599;SDS011;7386;45.586;12.854;2022-11-15T05:01:26;43.77;;;35.43;;
14599;SDS011;7386;45.586;12.854;2022-11-15T05:03:55;40.77;;;35.23;;
14599;SDS011;7386;45.586;12.854;2022-11-15T05:06:40;36.30;;;32.33;;
14599;SDS011;7386;45.586;12.854;2022-11-15T05:09:08;36.57;;;32.30;;
14599;SDS011;7386;45.586;12.854;2022-11-15T05:11:40;38.43;;;33.90;;
14599;SDS011;7386;45.586;12.854;2022-11-15T05:14:09;38.90;;;34.50;;
14599;SDS011;7386;45.586;12.854;2022-11-15T05:16:37;38.77;;;34.57;;
14599;SDS011;7386;45.586;12.854;2022-11-15T05:19:06;38.20;;;34.07;;
14599;SDS011;7386;45.586;12.854;2022-11-15T05:21:34;40.23;;;33.87;;
14599;SDS011;7386;45.586;12.854;2022-11-15T05:24:03;38.57;;;34.37;;
14599;SDS011;7386;45.586;12.854;2022-11-15T05:26:32;39.37;;;32.63;;
14599;SDS011;7386;45.586;12.854;2022-11-15T05:29:02;40.50;;;35.03;;
14599;SDS011;7386;45.586;12.854;2022-11-15T05:31:30;38.87;;;34.57;;
14599;SDS011;7386;45.586;12.854;2022-11-15T05:33:58;37.93;;;33.80;;
14599;SDS011;7386;45.586;12.854;2022-11-15T05:36:28;38.13;;;34.03;;
14599;SDS011;7386;45.586;12.854;2022-11-15T05:38:59;37.03;;;33.03;;
14599;SDS011;7386;45.586;12.854;2022-11-15T05:41:29;42.47;;;36.77;;
14599;SDS011;7386;45.586;12.854;2022-11-15T05:43:59;42.80;;;37.90;;
14599;SDS011;7386;45.586;12.854;2022-11-15T05:46:32;43.87;;;37.97;;
14599;SDS011;7386;45.586;12.854;2022-11-15T05:49:01;43.00;;;38.27;;
14599;SDS011;7386;45.586;12.854;2022-11-15T05:51:30;43.17;;;38.43;;
14599;SDS011;7386;45.586;12.854;2022-11-15T05:53:58;41.67;;;37.17;;
14599;SDS011;7386;45.586;12.854;2022-11-15T05:56:28;40.83;;;36.47;;
14599;SDS011;7386;45.586;12.854;2022-11-15T05:58:57;39.77;;;35.40;;
14599;SDS011;7386;45.586;12.854;2022-11-15T06:01:27;40.33;;;36.03;;
14599;SDS011;7386;45.586;12.854;2022-11-15T06:03:58;39.33;;;34.47;;
14599;SDS011;7386;45.586;12.854;2022-11-15T06:06:27;37.47;;;33.50;;
14599;SDS011;7386;45.586;12.854;2022-11-15T06:08:55;38.50;;;34.47;;
14599;SDS011;7386;45.586;12.854;2022-11-15T06:11:23;39.83;;;35.53;;
14599;SDS011;7386;45.586;12.854;2022-11-15T06:13:51;38.70;;;34.60;;
14599;SDS011;7386;45.586;12.854;2022-11-15T06:16:20;38.53;;;33.70;;
14599;SDS011;7386;45.586;12.854;2022-11-15T06:18:49;38.47;;;34.17;;
14599;SDS011;7386;45.586;12.854;2022-11-15T06:21:17;37.00;;;33.03;;
14599;SDS011;7386;45.586;12.854;2022-11-15T06:23:46;39.40;;;33.77;;
14599;SDS011;7386;45.586;12.854;2022-11-15T06:26:14;35.70;;;31.40;;
14599;SDS011;7386;45.586;12.854;2022-11-15T06:28:42;41.17;;;30.70;;
14599;SDS011;7386;45.586;12.854;2022-11-15T06:31:10;57.00;;;31.30;;
14599;SDS011;7386;45.586;12.854;2022-11-15T06:33:39;30.30;;;27.20;;
14599;SDS011;7386;45.586;12.854;2022-11-15T06:36:09;31.30;;;27.70;;
14599;SDS011;7386;45.586;12.854;2022-11-15T06:38:43;29.90;;;26.90;;
14599;SDS011;7386;45.586;12.854;2022-11-15T06:41:11;31.63;;;28.43;;
14599;SDS011;7386;45.586;12.854;2022-11-15T06:43:41;30.03;;;26.77;;
14599;SDS011;7386;45.586;12.854;2022-11-15T06:46:09;28.70;;;25.63;;
14599;SDS011;7386;45.586;12.854;2022-11-15T06:48:38;27.37;;;24.40;;
14599;SDS011;7386;45.586;12.854;2022-11-15T06:51:06;24.03;;;21.53;;
14599;SDS011;7386;45.586;12.854;2022-11-15T06:53:36;23.83;;;21.33;;
14599;SDS011;7386;45.586;12.854;2022-11-15T06:56:05;28.37;;;25.37;;
14599;SDS011;7386;45.586;12.854;2022-11-15T06:58:35;28.67;;;25.77;;
14599;SDS011;7386;45.586;12.854;2022-11-15T07:01:04;25.17;;;22.60;;
14599;SDS011;7386;45.586;12.854;2022-11-15T07:03:34;26.20;;;23.57;;
14599;SDS011;7386;45.586;12.854;2022-11-15T07:06:03;27.73;;;24.83;;
14599;SDS011;7386;45.586;12.854;2022-11-15T07:08:34;28.57;;;25.57;;
14599;SDS011;7386;45.586;12.854;2022-11-15T07:11:04;29.43;;;26.23;;
14599;SDS011;7386;45.586;12.854;2022-11-15T07:13:34;31.90;;;28.60;;
14599;SDS011;7386;45.586;12.854;2022-11-15T07:16:04;26.67;;;23.87;;
14599;SDS011;7386;45.586;12.854;2022-11-15T07:18:33;32.70;;;29.30;;
14599;SDS011;7386;45.586;12.854;2022-11-15T07:21:02;34.50;;;30.97;;
14599;SDS011;7386;45.586;12.854;2022-11-15T07:23:31;36.60;;;32.70;;
14599;SDS011;7386;45.586;12.854;2022-11-15T07:26:01;36.43;;;32.60;;
14599;SDS011;7386;45.586;12.854;2022-11-15T07:28:30;36.70;;;32.80;;
14599;SDS011;7386;45.586;12.854;2022-11-15T07:31:01;48.47;;;40.03;;
14599;SDS011;7386;45.586;12.854;2022-11-15T07:33:30;39.00;;;34.83;;
14599;SDS011;7386;45.586;12.854;2022-11-15T07:35:59;39.60;;;34.53;;
14599;SDS011;7386;45.586;12.854;2022-11-15T07:38:29;33.20;;;29.50;;
14599;SDS011;7386;45.586;12.854;2022-11-15T07:40:57;40.63;;;34.10;;
14599;SDS011;7386;45.586;12.854;2022-11-15T07:43:28;39.97;;;35.63;;
14599;SDS011;7386;45.586;12.854;2022-11-15T07:46:03;40.70;;;35.30;;
14599;SDS011;7386;45.586;12.854;2022-11-15T07:48:36;36.43;;;32.43;;
14599;SDS011;7386;45.586;12.854;2022-11-15T07:51:11;42.67;;;38.00;;
14599;SDS011;7386;45.586;12.854;2022-11-15T07:53:40;48.33;;;40.47;;
14599;SDS011;7386;45.586;12.854;2022-11-15T07:56:09;44.13;;;36.93;;
14599;SDS011;7386;45.586;12.854;2022-11-15T07:58:39;43.73;;;37.37;;
14599;SDS011;7386;45.586;12.854;2022-11-15T08:01:07;48.43;;;40.23;;
14599;SDS011;7386;45.586;12.854;2022-11-15T08:03:37;50.63;;;41.50;;
14599;SDS011;7386;45.586;12.854;2022-11-15T08:06:06;37.33;;;32.33;;
14599;SDS011;7386;45.586;12.854;2022-11-15T08:08:34;47.40;;;39.07;;
14599;SDS011;7386;45.586;12.854;2022-11-15T08:11:02;51.53;;;41.70;;
14599;SDS011;7386;45.586;12.854;2022-11-15T08:13:31;50.50;;;41.13;;
14599;SDS011;7386;45.586;12.854;2022-11-15T08:16:01;51.97;;;42.17;;
14599;SDS011;7386;45.586;12.854;2022-11-15T08:18:31;47.43;;;39.80;;
14599;SDS011;7386;45.586;12.854;2022-11-15T08:21:00;36.07;;;30.23;;
14599;SDS011;7386;45.586;12.854;2022-11-15T08:23:28;51.03;;;42.17;;
14599;SDS011;7386;45.586;12.854;2022-11-15T08:25:59;50.00;;;42.20;;
14599;SDS011;7386;45.586;12.854;2022-11-15T08:28:29;45.90;;;39.57;;
14599;SDS011;7386;45.586;12.854;2022-11-15T08:30:58;39.07;;;33.13;;
14599;SDS011;7386;45.586;12.854;2022-11-15T08:33:27;49.57;;;40.53;;
14599;SDS011;7386;45.586;12.854;2022-11-15T08:35:56;50.40;;;42.53;;
14599;SDS011;7386;45.586;12.854;2022-11-15T08:38:25;46.60;;;40.07;;
14599;SDS011;7386;45.586;12.854;2022-11-15T08:40:59;39.17;;;34.57;;
14599;SDS011;7386;45.586;12.854;2022-11-15T08:43:30;46.80;;;40.00;;
14599;SDS011;7386;45.586;12.854;2022-11-15T08:45:59;52.17;;;42.40;;
14599;SDS011;7386;45.586;12.854;2022-11-15T08:48:28;44.27;;;37.97;;
14599;SDS011;7386;45.586;12.854;2022-11-15T08:50:57;44.17;;;36.20;;
14599;SDS011;7386;45.586;12.854;2022-11-15T08:53:26;47.30;;;40.07;;
14599;SDS011;7386;45.586;12.854;2022-11-15T08:55:55;51.27;;;42.47;;
14599;SDS011;7386;45.586;12.854;2022-11-15T08:58:23;46.43;;;38.87;;
14599;SDS011;7386;45.586;12.854;2022-11-15T09:00:52;49.20;;;38.00;;
14599;SDS011;7386;45.586;12.854;2022-11-15T09:03:20;54.00;;;43.77;;
14599;SDS011;7386;45.586;12.854;2022-11-15T09:05:50;48.53;;;40.93;;
14599;SDS011;7386;45.586;12.854;2022-11-15T09:08:22;39.60;;;32.70;;
14599;SDS011;7386;45.586;12.854;2022-11-15T09:11:10;48.47;;;40.17;;
14599;SDS011;7386;45.586;12.854;2022-11-15T09:13:39;52.70;;;42.30;;
14599;SDS011;7386;45.586;12.854;2022-11-15T09:16:08;47.03;;;37.20;;
14599;SDS011;7386;45.586;12.854;2022-11-15T09:18:38;46.93;;;39.30;;
14599;SDS011;7386;45.586;12.854;2022-11-15T09:21:08;51.00;;;43.10;;
14599;SDS011;7386;45.586;12.854;2022-11-15T09:23:37;55.57;;;44.97;;
14599;SDS011;7386;45.586;12.854;2022-11-15T09:26:06;41.87;;;36.50;;
14599;SDS011;7386;45.586;12.854;2022-11-15T09:28:35;51.20;;;40.13;;
14599;SDS011;7386;45.586;12.854;2022-11-15T09:33:52;43.47;;;36.33;;
14599;SDS011;7386;45.586;12.854;2022-11-15T09:36:22;40.67;;;35.13;;
14599;SDS011;7386;45.586;12.854;2022-11-15T09:38:51;60.37;;;40.20;;
14599;SDS011;7386;45.586;12.854;2022-11-15T09:41:25;47.57;;;38.17;;
14599;SDS011;7386;45.586;12.854;2022-11-15T09:44:15;36.80;;;31.27;;
14599;SDS011;7386;45.586;12.854;2022-11-15T09:46:57;46.97;;;36.90;;
14599;SDS011;7386;45.586;12.854;2022-11-15T09:49:32;44.80;;;36.53;;
14599;SDS011;7386;45.586;12.854;2022-11-15T09:52:02;36.93;;;31.17;;
14599;SDS011;7386;45.586;12.854;2022-11-15T09:54:32;38.97;;;33.10;;
14599;SDS011;7386;45.586;12.854;2022-11-15T09:57:21;42.37;;;35.07;;
14599;SDS011;7386;45.586;12.854;2022-11-15T10:00:09;48.20;;;36.97;;
14599;SDS011;7386;45.586;12.854;2022-11-15T10:03:07;37.43;;;31.23;;
14599;SDS011;7386;45.586;12.854;2022-11-15T10:05:39;53.30;;;44.23;;
14599;SDS011;7386;45.586;12.854;2022-11-15T10:11:14;42.70;;;35.17;;
14599;SDS011;7386;45.586;12.854;2022-11-15T10:14:04;48.83;;;41.60;;
14599;SDS011;7386;45.586;12.854;2022-11-15T10:16:45;46.73;;;40.17;;
14599;SDS011;7386;45.586;12.854;2022-11-15T10:19:28;39.23;;;34.23;;
14599;SDS011;7386;45.586;12.854;2022-11-15T10:22:05;45.53;;;36.80;;
14599;SDS011;7386;45.586;12.854;2022-11-15T10:24:45;61.87;;;43.63;;
14599;SDS011;7386;45.586;12.854;2022-11-15T10:27:16;61.80;;;47.47;;
14599;SDS011;7386;45.586;12.854;2022-11-15T10:29:47;49.73;;;38.00;;
14599;SDS011;7386;45.586;12.854;2022-11-15T10:32:17;65.10;;;51.03;;
14599;SDS011;7386;45.586;12.854;2022-11-15T10:34:46;70.70;;;53.13;;
14599;SDS011;7386;45.586;12.854;2022-11-15T10:37:20;48.93;;;39.87;;
14599;SDS011;7386;45.586;12.854;2022-11-15T10:40:02;61.30;;;46.50;;
14599;SDS011;7386;45.586;12.854;2022-11-15T10:42:33;75.17;;;52.03;;
14599;SDS011;7386;45.586;12.854;2022-11-15T10:45:02;73.53;;;55.13;;
14599;SDS011;7386;45.586;12.854;2022-11-15T10:47:49;50.80;;;40.30;;
14599;SDS011;7386;45.586;12.854;2022-11-15T10:50:28;74.47;;;54.17;;
14599;SDS011;7386;45.586;12.854;2022-11-15T10:52:58;79.87;;;55.50;;
14599;SDS011;7386;45.586;12.854;2022-11-15T10:55:29;56.43;;;44.27;;
14599;SDS011;7386;45.586;12.854;2022-11-15T10:58:03;69.20;;;49.83;;
14599;SDS011;7386;45.586;12.854;2022-11-15T11:00:34;78.47;;;56.60;;
14599;SDS011;7386;45.586;12.854;2022-11-15T11:03:06;76.83;;;54.77;;
14599;SDS011;7386;45.586;12.854;2022-11-15T11:06:02;50.20;;;39.17;;
14599;SDS011;7386;45.586;12.854;2022-11-15T11:08:32;73.93;;;59.73;;
14599;SDS011;7386;45.586;12.854;2022-11-15T11:11:01;69.07;;;52.73;;
14599;SDS011;7386;45.586;12.854;2022-11-15T11:13:33;54.17;;;42.37;;
14599;SDS011;7386;45.586;12.854;2022-11-15T11:16:08;65.83;;;50.63;;
14599;SDS011;7386;45.586;12.854;2022-11-15T11:18:48;74.53;;;53.63;;
14599;SDS011;7386;45.586;12.854;2022-11-15T11:21:25;59.20;;;46.47;;
14599;SDS011;7386;45.586;12.854;2022-11-15T11:24:07;63.77;;;47.17;;
14599;SDS011;7386;45.586;12.854;2022-11-15T11:26:42;80.37;;;55.23;;
14599;SDS011;7386;45.586;12.854;2022-11-15T11:29:30;81.20;;;56.33;;
14599;SDS011;7386;45.586;12.854;2022-11-15T11:32:13;61.40;;;45.87;;
14599;SDS011;7386;45.586;12.854;2022-11-15T11:34:56;81.73;;;54.87;;
14599;SDS011;7386;45.586;12.854;2022-11-15T11:37:35;88.83;;;59.07;;
14599;SDS011;7386;45.586;12.854;2022-11-15T11:40:13;76.87;;;52.90;;
14599;SDS011;7386;45.586;12.854;2022-11-15T11:42:50;74.50;;;52.10;;
14599;SDS011;7386;45.586;12.854;2022-11-15T11:45:31;77.90;;;54.90;;
14599;SDS011;7386;45.586;12.854;2022-11-15T11:48:13;71.70;;;50.93;;
14599;SDS011;7386;45.586;12.854;2022-11-15T11:50:48;72.37;;;49.87;;
14599;SDS011;7386;45.586;12.854;2022-11-15T11:53:21;80.10;;;54.90;;
14599;SDS011;7386;45.586;12.854;2022-11-15T11:55:56;69.67;;;49.87;;
14599;SDS011;7386;45.586;12.854;2022-11-15T11:58:31;69.73;;;49.03;;
14599;SDS011;7386;45.586;12.854;2022-11-15T12:01:07;84.37;;;55.03;;
14599;SDS011;7386;45.586;12.854;2022-11-15T12:03:42;78.43;;;51.80;;
14599;SDS011;7386;45.586;12.854;2022-11-15T12:06:17;68.90;;;48.17;;
14599;SDS011;7386;45.586;12.854;2022-11-15T12:08:52;84.10;;;55.80;;
14599;SDS011;7386;45.586;12.854;2022-11-15T12:11:27;72.60;;;50.47;;
14599;SDS011;7386;45.586;12.854;2022-11-15T12:14:01;53.87;;;40.00;;
14599;SDS011;7386;45.586;12.854;2022-11-15T12:16:37;79.73;;;53.90;;
14599;SDS011;7386;45.586;12.854;2022-11-15T12:19:08;72.33;;;50.80;;
14599;SDS011;7386;45.586;12.854;2022-11-15T12:21:39;55.23;;;40.40;;
14599;SDS011;7386;45.586;12.854;2022-11-15T12:24:13;74.43;;;51.63;;
14599;SDS011;7386;45.586;12.854;2022-11-15T12:26:47;78.63;;;54.37;;
14599;SDS011;7386;45.586;12.854;2022-11-15T12:29:20;59.93;;;43.50;;
14599;SDS011;7386;45.586;12.854;2022-11-15T12:31:55;72.63;;;50.70;;
14599;SDS011;7386;45.586;12.854;2022-11-15T12:34:34;69.93;;;50.00;;
14599;SDS011;7386;45.586;12.854;2022-11-15T12:46:10;63.33;;;45.50;;
14599;SDS011;7386;45.586;12.854;2022-11-15T12:54:55;59.07;;;41.57;;
14599;SDS011;7386;45.586;12.854;2022-11-15T13:03:20;60.33;;;44.13;;
14599;SDS011;7386;45.586;12.854;2022-11-15T13:05:55;56.57;;;42.17;;
14599;SDS011;7386;45.586;12.854;2022-11-15T13:08:37;76.00;;;51.53;;
14599;SDS011;7386;45.586;12.854;2022-11-15T13:23:02;73.53;;;49.87;;
14599;SDS011;7386;45.586;12.854;2022-11-15T13:25:41;79.37;;;53.60;;
14599;SDS011;7386;45.586;12.854;2022-11-15T13:28:24;69.80;;;48.00;;
14599;SDS011;7386;45.586;12.854;2022-11-15T13:30:59;55.40;;;40.97;;
14599;SDS011;7386;45.586;12.854;2022-11-15T13:33:30;74.57;;;51.97;;
14599;SDS011;7386;45.586;12.854;2022-11-15T13:36:03;69.47;;;48.07;;
14599;SDS011;7386;45.586;12.854;2022-11-15T13:38:37;54.33;;;40.17;;
14599;SDS011;7386;45.586;12.854;2022-11-15T13:41:16;70.23;;;47.77;;
14599;SDS011;7386;45.586;12.854;2022-11-15T13:43:47;79.03;;;53.07;;
14599;SDS011;7386;45.586;12.854;2022-11-15T13:46:16;61.40;;;45.30;;
14599;SDS011;7386;45.586;12.854;2022-11-15T13:48:47;68.93;;;47.70;;
14599;SDS011;7386;45.586;12.854;2022-11-15T13:51:20;77.50;;;54.03;;
14599;SDS011;7386;45.586;12.854;2022-11-15T13:53:54;63.07;;;45.03;;
14599;SDS011;7386;45.586;12.854;2022-11-15T13:56:26;73.57;;;49.70;;
14599;SDS011;7386;45.586;12.854;2022-11-15T13:58:56;80.47;;;53.23;;
14599;SDS011;7386;45.586;12.854;2022-11-15T14:01:27;64.73;;;44.50;;
14599;SDS011;7386;45.586;12.854;2022-11-15T14:03:59;79.23;;;52.43;;
14599;SDS011;7386;45.586;12.854;2022-11-15T14:06:29;71.97;;;50.23;;
14599;SDS011;7386;45.586;12.854;2022-11-15T14:14:51;66.40;;;45.87;;
14599;SDS011;7386;45.586;12.854;2022-11-15T14:17:21;62.53;;;43.73;;
14599;SDS011;7386;45.586;12.854;2022-11-15T14:20:01;76.40;;;52.87;;
14599;SDS011;7386;45.586;12.854;2022-11-15T14:22:30;66.33;;;46.30;;
14599;SDS011;7386;45.586;12.854;2022-11-15T14:25:14;69.90;;;46.83;;
14599;SDS011;7386;45.586;12.854;2022-11-15T14:28:07;76.47;;;53.37;;
14599;SDS011;7386;45.586;12.854;2022-11-15T14:30:50;59.80;;;42.43;;
14599;SDS011;7386;45.586;12.854;2022-11-15T14:33:21;74.67;;;50.97;;
14599;SDS011;7386;45.586;12.854;2022-11-15T14:35:51;70.77;;;48.90;;
14599;SDS011;7386;45.586;12.854;2022-11-15T14:38:21;57.60;;;41.27;;
14599;SDS011;7386;45.586;12.854;2022-11-15T14:40:51;70.57;;;47.83;;
14599;SDS011;7386;45.586;12.854;2022-11-15T14:43:22;63.33;;;46.20;;
14599;SDS011;7386;45.586;12.854;2022-11-15T14:45:50;60.60;;;43.93;;
14599;SDS011;7386;45.586;12.854;2022-11-15T14:48:19;51.97;;;38.60;;
14599;SDS011;7386;45.586;12.854;2022-11-15T14:50:48;46.00;;;33.60;;
14599;SDS011;7386;45.586;12.854;2022-11-15T14:53:17;41.57;;;31.03;;
14599;SDS011;7386;45.586;12.854;2022-11-15T14:55:46;40.30;;;30.77;;
14599;SDS011;7386;45.586;12.854;2022-11-15T14:58:16;40.47;;;31.27;;
14599;SDS011;7386;45.586;12.854;2022-11-15T15:00:44;42.43;;;29.20;;
14599;SDS011;7386;45.586;12.854;2022-11-15T15:03:13;37.47;;;28.10;;
14599;SDS011;7386;45.586;12.854;2022-11-15T15:05:42;38.17;;;28.87;;
14599;SDS011;7386;45.586;12.854;2022-11-15T15:08:11;38.57;;;28.93;;
14599;SDS011;7386;45.586;12.854;2022-11-15T15:10:40;37.03;;;28.73;;
14599;SDS011;7386;45.586;12.854;2022-11-15T15:13:13;38.73;;;28.70;;
14599;SDS011;7386;45.586;12.854;2022-11-15T15:15:46;36.27;;;28.53;;
14599;SDS011;7386;45.586;12.854;2022-11-15T15:18:16;34.47;;;27.63;;
14599;SDS011;7386;45.586;12.854;2022-11-15T15:20:47;35.53;;;26.53;;
14599;SDS011;7386;45.586;12.854;2022-11-15T15:23:24;37.20;;;28.47;;
14599;SDS011;7386;45.586;12.854;2022-11-15T15:25:55;32.00;;;25.80;;
14599;SDS011;7386;45.586;12.854;2022-11-15T15:28:25;35.00;;;26.17;;
14599;SDS011;7386;45.586;12.854;2022-11-15T15:31:00;33.27;;;25.63;;
14599;SDS011;7386;45.586;12.854;2022-11-15T15:33:28;35.50;;;26.83;;
14599;SDS011;7386;45.586;12.854;2022-11-15T15:35:57;33.77;;;25.40;;
14599;SDS011;7386;45.586;12.854;2022-11-15T15:38:25;28.97;;;24.23;;